Time;durP1;ratioP1;P1;durP2;ratioP2;P2;SDS_P1;SDS_P2;PMS_P1;PMS_P2;Temp;Humidity;BMP_temperature;BMP_pressure;BME280_temperature;BME280_humidity;BME280_pressure;Samples;Min_cycle;Max_cycle;Signal;HPM_P1;HPM_P2
2023/08/05 00:00:04;;;;;;;20.25;10.23;;;;;;;;;;5011238;28;20121;-58
2023/08/05 00:02:30;;;;;;;22.98;11.32;;;;;;;;;;5010308;28;20029;-57
2023/08/05 00:04:55;;;;;;;20.35;10.98;;;;;;;;;;5010897;28;20026;-55
2023/08/05 00:07:21;;;;;;;18.40;10.32;;;;;;;;;;5011467;28;20018;-53
2023/08/05 00:09:47;;;;;;;18.48;10.70;;;;;;;;;;5009991;28;20466;-55
2023/08/05 00:12:13;;;;;;;20.65;11.20;;;;;;;;;;5010119;28;20091;-56
2023/08/05 00:14:39;;;;;;;19.98;11.30;;;;;;;;;;5010170;28;20033;-54
2023/08/05 00:17:05;;;;;;;21.20;11.73;;;;;;;;;;5009713;28;20022;-56
2023/08/05 00:19:31;;;;;;;20.27;11.68;;;;;;;;;;5011529;28;20079;-53
2023/08/05 00:21:57;;;;;;;19.08;10.63;;;;;;;;;;5073637;28;20032;-51
2023/08/05 00:24:23;;;;;;;17.30;11.35;;;;;;;;;;5112168;28;20030;-52
2023/08/05 00:26:49;;;;;;;19.08;11.30;;;;;;;;;;5114200;28;20088;-55
2023/08/05 00:29:15;;;;;;;20.88;11.68;;;;;;;;;;5114228;28;20415;-53
2023/08/05 00:31:41;;;;;;;20.65;11.43;;;;;;;;;;5112944;28;20106;-52
2023/08/05 00:34:07;;;;;;;18.45;11.13;;;;;;;;;;5113518;28;20180;-54
2023/08/05 00:36:33;;;;;;;18.20;11.30;;;;;;;;;;5112617;28;20109;-52
2023/08/05 00:38:59;;;;;;;19.60;11.48;;;;;;;;;;5113890;28;20060;-50
2023/08/05 00:41:25;;;;;;;20.48;11.73;;;;;;;;;;5114067;28;20036;-54
2023/08/05 00:43:51;;;;;;;21.15;11.05;;;;;;;;;;5113819;28;20020;-51
2023/08/05 00:46:18;;;;;;;19.90;11.07;;;;;;;;;;5113385;28;20406;-55
2023/08/05 00:48:44;;;;;;;18.05;10.88;;;;;;;;;;5113820;28;20026;-51
2023/08/05 00:51:11;;;;;;;18.63;10.88;;;;;;;;;;5113916;28;20027;-53
2023/08/05 00:53:38;;;;;;;18.20;11.27;;;;;;;;;;5113803;28;20027;-54
2023/08/05 00:56:04;;;;;;;24.00;11.05;;;;;;;;;;5113103;28;20434;-51
2023/08/05 00:58:32;;;;;;;21.58;11.10;;;;;;;;;;5113742;28;20102;-51
2023/08/05 01:00:59;;;;;;;19.30;11.17;;;;;;;;;;5113798;28;20038;-55
2023/08/05 01:03:25;;;;;;;20.52;11.07;;;;;;;;;;5112543;28;20015;-56
2023/08/05 01:05:51;;;;;;;19.88;11.20;;;;;;;;;;5113218;28;20548;-54
2023/08/05 01:08:19;;;;;;;21.98;11.15;;;;;;;;;;5114131;28;20019;-56
2023/08/05 01:10:45;;;;;;;20.48;11.55;;;;;;;;;;5113813;28;20104;-56
2023/08/05 01:13:11;;;;;;;19.05;11.32;;;;;;;;;;5113806;28;20024;-56
2023/08/05 01:15:37;;;;;;;20.02;11.27;;;;;;;;;;5112809;28;20034;-55
2023/08/05 01:18:05;;;;;;;17.90;11.25;;;;;;;;;;5112188;28;20506;-57
2023/08/05 01:20:50;;;;;;;18.83;11.07;;;;;;;;;;5113180;28;20028;-56
2023/08/05 01:23:21;;;;;;;19.23;11.10;;;;;;;;;;5112938;28;20065;-58
2023/08/05 01:25:47;;;;;;;18.77;11.25;;;;;;;;;;5001997;28;20026;-57
2023/08/05 01:28:14;;;;;;;19.23;10.05;;;;;;;;;;5009923;28;20107;-50
2023/08/05 01:30:41;;;;;;;19.73;11.60;;;;;;;;;;5009844;28;20034;-52
2023/08/05 01:33:07;;;;;;;20.60;10.50;;;;;;;;;;5009929;28;20037;-54
2023/08/05 01:35:33;;;;;;;19.15;10.07;;;;;;;;;;5008901;28;20512;-51
2023/08/05 01:37:59;;;;;;;18.33;10.63;;;;;;;;;;5010301;28;20033;-53
2023/08/05 01:40:28;;;;;;;20.48;10.60;;;;;;;;;;5009758;28;20034;-57
2023/08/05 01:42:57;;;;;;;19.95;10.70;;;;;;;;;;5008495;28;20022;-52
2023/08/05 01:45:24;;;;;;;18.67;10.25;;;;;;;;;;4998129;28;20027;-54
2023/08/05 01:47:50;;;;;;;18.00;10.23;;;;;;;;;;5009496;28;20118;-50
2023/08/05 01:50:16;;;;;;;20.58;10.77;;;;;;;;;;5009789;28;20059;-55
2023/08/05 01:52:42;;;;;;;16.75;10.10;;;;;;;;;;5009416;28;20033;-53
2023/08/05 01:55:08;;;;;;;26.08;10.50;;;;;;;;;;5008878;28;20419;-51
2023/08/05 01:57:34;;;;;;;19.20;10.70;;;;;;;;;;5009601;28;20116;-57
2023/08/05 02:00:00;;;;;;;20.33;10.25;;;;;;;;;;5009429;28;20030;-51
2023/08/05 02:02:26;;;;;;;21.48;10.43;;;;;;;;;;5009486;28;20433;-54
2023/08/05 02:04:52;;;;;;;18.23;10.13;;;;;;;;;;5008413;28;20122;-55
2023/08/05 02:07:18;;;;;;;18.73;10.57;;;;;;;;;;5009236;28;20171;-55
2023/08/05 02:09:44;;;;;;;18.25;10.32;;;;;;;;;;5008099;28;20033;-55
2023/08/05 02:12:10;;;;;;;17.75;10.07;;;;;;;;;;5009203;28;20033;-53
2023/08/05 02:14:36;;;;;;;20.33;9.88;;;;;;;;;;5008367;28;20371;-50
2023/08/05 02:17:02;;;;;;;18.90;10.90;;;;;;;;;;5009232;28;20033;-53
2023/08/05 02:19:28;;;;;;;17.85;10.00;;;;;;;;;;5009239;28;20026;-53
2023/08/05 02:21:54;;;;;;;18.65;10.18;;;;;;;;;;5009204;28;20542;-52
2023/08/05 02:24:20;;;;;;;23.17;12.40;;;;;;;;;;5008548;28;20359;-54
2023/08/05 02:26:46;;;;;;;19.80;10.60;;;;;;;;;;5008988;28;20022;-54
2023/08/05 02:29:12;;;;;;;20.40;11.00;;;;;;;;;;5007800;28;20480;-55
2023/08/05 02:31:38;;;;;;;22.27;11.65;;;;;;;;;;5008922;28;20026;-53
2023/08/05 02:34:04;;;;;;;20.02;10.93;;;;;;;;;;5008745;28;20054;-52
2023/08/05 02:36:30;;;;;;;18.85;10.88;;;;;;;;;;5008081;28;20034;-55
2023/08/05 02:38:56;;;;;;;18.88;11.07;;;;;;;;;;5009114;28;20026;-55
2023/08/05 02:41:22;;;;;;;17.88;11.00;;;;;;;;;;5009078;28;20061;-55
2023/08/05 02:43:48;;;;;;;19.35;11.55;;;;;;;;;;5008204;28;20026;-52
2023/08/05 02:46:14;;;;;;;20.73;11.48;;;;;;;;;;5008354;28;20026;-59
2023/08/05 02:48:40;;;;;;;19.20;11.18;;;;;;;;;;5008936;28;20168;-51
2023/08/05 02:51:06;;;;;;;20.00;11.30;;;;;;;;;;5008924;28;20688;-56
2023/08/05 02:53:32;;;;;;;21.50;11.95;;;;;;;;;;5008846;28;20017;-54
2023/08/05 02:55:58;;;;;;;19.58;11.73;;;;;;;;;;5007734;28;20402;-52
2023/08/05 02:58:24;;;;;;;23.05;12.32;;;;;;;;;;5009004;28;20045;-54
2023/08/05 03:00:50;;;;;;;17.98;11.05;;;;;;;;;;5008957;28;20042;-55
2023/08/05 03:03:16;;;;;;;18.92;11.27;;;;;;;;;;5009086;28;20063;-53
2023/08/05 03:05:42;;;;;;;18.15;10.70;;;;;;;;;;5007712;28;20026;-53
2023/08/05 03:08:10;;;;;;;17.38;10.65;;;;;;;;;;5008414;28;20069;-56
2023/08/05 03:10:36;;;;;;;22.70;11.55;;;;;;;;;;5008557;28;20060;-55
2023/08/05 03:13:02;;;;;;;17.85;11.27;;;;;;;;;;5008429;28;20042;-54
2023/08/05 03:15:28;;;;;;;18.60;11.15;;;;;;;;;;5007592;28;20053;-57
2023/08/05 03:17:55;;;;;;;20.95;11.95;;;;;;;;;;5008379;28;20079;-55
2023/08/05 03:20:25;;;;;;;18.35;11.05;;;;;;;;;;5008301;28;20113;-55
2023/08/05 03:22:52;;;;;;;19.33;11.13;;;;;;;;;;5008495;28;20027;-55
2023/08/05 03:25:18;;;;;;;20.17;11.05;;;;;;;;;;5007558;28;20018;-56
2023/08/05 03:27:44;;;;;;;18.88;10.43;;;;;;;;;;5007047;28;20044;-50
2023/08/05 03:30:10;;;;;;;19.08;10.90;;;;;;;;;;5008308;28;20093;-51
2023/08/05 03:32:36;;;;;;;19.13;11.10;;;;;;;;;;5006922;28;20029;-49
2023/08/05 03:35:02;;;;;;;18.77;11.93;;;;;;;;;;5007242;28;20397;-51
2023/08/05 03:37:29;;;;;;;22.02;12.35;;;;;;;;;;5008066;28;20044;-50
2023/08/05 03:39:55;;;;;;;23.63;11.32;;;;;;;;;;5007975;28;20041;-53
2023/08/05 03:42:21;;;;;;;19.67;11.23;;;;;;;;;;5008128;28;20385;-53
2023/08/05 03:44:46;;;;;;;19.92;11.32;;;;;;;;;;5007412;28;20026;-52
2023/08/05 03:47:12;;;;;;;18.98;11.30;;;;;;;;;;5002196;28;20109;-55
2023/08/05 03:49:41;;;;;;;19.05;10.85;;;;;;;;;;5011117;28;20516;-50
2023/08/05 03:52:07;;;;;;;20.40;11.73;;;;;;;;;;5011161;28;20485;-56
2023/08/05 03:54:33;;;;;;;21.00;11.40;;;;;;;;;;5009088;28;20030;-52
2023/08/05 03:56:59;;;;;;;21.17;12.02;;;;;;;;;;5011365;28;20078;-49
2023/08/05 03:59:25;;;;;;;21.88;12.55;;;;;;;;;;5009788;28;20030;-51
2023/08/05 04:01:52;;;;;;;24.70;13.55;;;;;;;;;;5011151;28;20018;-50
2023/08/05 04:04:18;;;;;;;21.48;11.32;;;;;;;;;;5009132;28;20147;-53
2023/08/05 04:06:45;;;;;;;22.10;12.27;;;;;;;;;;5011058;28;20371;-52
2023/08/05 04:09:11;;;;;;;23.38;11.88;;;;;;;;;;5011150;28;20053;-52
2023/08/05 04:11:37;;;;;;;21.25;13.13;;;;;;;;;;5009844;28;20038;-53
2023/08/05 04:14:04;;;;;;;20.58;12.35;;;;;;;;;;5009221;28;20022;-52
2023/08/05 04:16:30;;;;;;;22.25;12.75;;;;;;;;;;5010746;28;20116;-58
2023/08/05 04:18:57;;;;;;;23.95;13.10;;;;;;;;;;5010751;28;20490;-54
2023/08/05 04:21:28;;;;;;;24.08;13.00;;;;;;;;;;5010942;28;20470;-51
2023/08/05 04:23:54;;;;;;;21.67;12.45;;;;;;;;;;5010501;28;20041;-50
2023/08/05 04:26:21;;;;;;;21.80;12.68;;;;;;;;;;5010547;28;20529;-54
2023/08/05 04:28:47;;;;;;;22.58;13.05;;;;;;;;;;5010665;28;20026;-54
2023/08/05 04:31:14;;;;;;;20.33;12.45;;;;;;;;;;5010961;28;20030;-50
2023/08/05 04:33:40;;;;;;;19.85;12.10;;;;;;;;;;5010521;28;20033;-56
2023/08/05 04:36:06;;;;;;;19.27;12.15;;;;;;;;;;5009716;28;20125;-52
2023/08/05 04:38:32;;;;;;;22.73;12.88;;;;;;;;;;5010623;28;20044;-53
2023/08/05 04:40:58;;;;;;;20.70;12.82;;;;;;;;;;5009311;28;20030;-56
2023/08/05 04:43:24;;;;;;;18.38;12.45;;;;;;;;;;5010496;28;20029;-52
2023/08/05 04:45:50;;;;;;;22.90;12.45;;;;;;;;;;5009588;28;20030;-50
2023/08/05 04:48:17;;;;;;;21.63;12.45;;;;;;;;;;5010570;28;20018;-56
2023/08/05 04:50:43;;;;;;;19.88;11.65;;;;;;;;;;5010557;28;20026;-50
2023/08/05 04:53:09;;;;;;;24.17;12.32;;;;;;;;;;5010401;28;20033;-50
2023/08/05 04:55:35;;;;;;;21.60;12.05;;;;;;;;;;5009653;28;20022;-55
2023/08/05 04:58:02;;;;;;;24.67;15.88;;;;;;;;;;5008634;28;20489;-50
2023/08/05 05:00:28;;;;;;;23.35;12.23;;;;;;;;;;5010154;28;20040;-51
2023/08/05 05:02:54;;;;;;;22.05;12.18;;;;;;;;;;5010364;28;20108;-55
2023/08/05 05:05:20;;;;;;;24.70;13.00;;;;;;;;;;5009368;28;20501;-50
2023/08/05 05:07:46;;;;;;;20.13;12.52;;;;;;;;;;5010188;28;20018;-51
2023/08/05 05:10:12;;;;;;;22.45;11.98;;;;;;;;;;5010014;28;20026;-52
2023/08/05 05:12:38;;;;;;;24.95;14.40;;;;;;;;;;5010227;28;20545;-52
2023/08/05 05:15:04;;;;;;;23.73;14.95;;;;;;;;;;5009261;28;20034;-50
2023/08/05 05:17:36;;;;;;;21.58;12.95;;;;;;;;;;5010066;28;20482;-53
2023/08/05 05:20:05;;;;;;;20.17;12.38;;;;;;;;;;5010005;28;20044;-49
2023/08/05 05:22:32;;;;;;;22.08;12.43;;;;;;;;;;5010170;28;20070;-58
2023/08/05 05:24:58;;;;;;;22.90;12.10;;;;;;;;;;5009331;28;20034;-57
2023/08/05 05:27:24;;;;;;;22.10;13.55;;;;;;;;;;5009876;28;20439;-55
2023/08/05 05:29:50;;;;;;;21.60;12.82;;;;;;;;;;5010075;28;20490;-55
2023/08/05 05:32:16;;;;;;;26.75;14.05;;;;;;;;;;5010206;28;20049;-54
2023/08/05 05:34:42;;;;;;;20.05;13.43;;;;;;;;;;5009127;28;20026;-56
2023/08/05 05:37:08;;;;;;;21.35;13.48;;;;;;;;;;5011197;28;20572;-55
2023/08/05 05:39:34;;;;;;;26.88;17.27;;;;;;;;;;5009939;28;20084;-57
2023/08/05 05:42:00;;;;;;;22.35;14.15;;;;;;;;;;5009857;28;20041;-52
2023/08/05 05:44:29;;;;;;;22.00;14.20;;;;;;;;;;5008890;28;20014;-54
2023/08/05 05:46:55;;;;;;;27.10;16.35;;;;;;;;;;5003490;28;20022;-50
2023/08/05 05:49:21;;;;;;;20.67;12.60;;;;;;;;;;5009398;28;20048;-49
2023/08/05 05:51:48;;;;;;;24.60;14.57;;;;;;;;;;5008058;28;20075;-52
2023/08/05 05:54:14;;;;;;;26.95;14.30;;;;;;;;;;5008906;28;20026;-50
2023/08/05 05:56:40;;;;;;;22.33;13.10;;;;;;;;;;5009392;28;20028;-50
2023/08/05 05:59:06;;;;;;;22.35;13.45;;;;;;;;;;5009548;28;20381;-52
2023/08/05 06:01:32;;;;;;;23.05;12.73;;;;;;;;;;5009247;28;20022;-51
2023/08/05 06:03:58;;;;;;;21.55;12.30;;;;;;;;;;5008919;28;20152;-56
2023/08/05 06:06:24;;;;;;;23.85;12.43;;;;;;;;;;5009107;28;20470;-51
2023/08/05 06:08:50;;;;;;;20.27;12.32;;;;;;;;;;5009221;28;20030;-50
2023/08/05 06:11:16;;;;;;;22.42;12.00;;;;;;;;;;5007029;28;20526;-51
2023/08/05 06:13:42;;;;;;;20.25;11.80;;;;;;;;;;5009026;28;20026;-52
2023/08/05 06:16:08;;;;;;;19.13;11.82;;;;;;;;;;5008285;28;20041;-49
2023/08/05 06:18:34;;;;;;;20.73;11.95;;;;;;;;;;5007767;28;20032;-50
2023/08/05 06:21:00;;;;;;;20.52;12.52;;;;;;;;;;5008844;28;20026;-53
2023/08/05 06:23:26;;;;;;;19.00;10.77;;;;;;;;;;5008954;28;20018;-53
2023/08/05 06:25:52;;;;;;;19.15;10.80;;;;;;;;;;5008056;28;20022;-54
2023/08/05 06:28:18;;;;;;;19.45;11.43;;;;;;;;;;5007728;28;20022;-53
2023/08/05 06:30:44;;;;;;;21.38;11.52;;;;;;;;;;5008753;28;20033;-53
2023/08/05 06:33:11;;;;;;;19.33;11.75;;;;;;;;;;5007426;28;20022;-50
2023/08/05 06:35:37;;;;;;;18.25;10.85;;;;;;;;;;5007740;28;20049;-53
2023/08/05 06:38:03;;;;;;;18.98;11.32;;;;;;;;;;5009014;28;20091;-53
2023/08/05 06:40:29;;;;;;;19.38;11.27;;;;;;;;;;5008439;28;20030;-53
2023/08/05 06:42:56;;;;;;;21.35;11.10;;;;;;;;;;5008641;28;20022;-56
2023/08/05 06:45:22;;;;;;;20.23;11.85;;;;;;;;;;5006433;28;20024;-53
2023/08/05 06:47:48;;;;;;;18.63;11.05;;;;;;;;;;5008441;28;20034;-53
2023/08/05 06:50:14;;;;;;;17.15;10.68;;;;;;;;;;5006630;28;20026;-56
2023/08/05 06:52:40;;;;;;;20.67;12.00;;;;;;;;;;5004925;28;20033;-57
2023/08/05 06:55:07;;;;;;;21.23;12.07;;;;;;;;;;5007417;28;20424;-53
2023/08/05 06:57:33;;;;;;;20.35;12.43;;;;;;;;;;5008323;28;20042;-57
2023/08/05 06:59:59;;;;;;;18.80;10.60;;;;;;;;;;4997906;28;20049;-57
2023/08/05 07:02:25;;;;;;;17.65;10.50;;;;;;;;;;4988579;28;20482;-57
2023/08/05 07:04:52;;;;;;;18.63;10.57;;;;;;;;;;4987648;28;20575;-56
2023/08/05 07:07:18;;;;;;;22.55;10.88;;;;;;;;;;4988884;28;20038;-53
2023/08/05 07:09:44;;;;;;;19.73;10.93;;;;;;;;;;5007898;28;20033;-53
2023/08/05 07:12:10;;;;;;;18.13;11.35;;;;;;;;;;5008033;28;20437;-54
2023/08/05 07:14:36;;;;;;;18.13;10.68;;;;;;;;;;5007059;28;20022;-56
2023/08/05 07:17:02;;;;;;;18.52;10.07;;;;;;;;;;5007966;28;20389;-55
2023/08/05 07:19:28;;;;;;;16.67;10.30;;;;;;;;;;5007793;28;20033;-57
2023/08/05 07:21:54;;;;;;;21.08;12.88;;;;;;;;;;5009949;28;20032;-57
2023/08/05 07:24:20;;;;;;;16.60;10.50;;;;;;;;;;5008620;28;20022;-52
2023/08/05 07:26:46;;;;;;;18.40;11.07;;;;;;;;;;5006122;28;20546;-55
2023/08/05 07:29:12;;;;;;;19.73;11.68;;;;;;;;;;5009970;28;20053;-55
2023/08/05 07:31:38;;;;;;;18.67;11.80;;;;;;;;;;5011168;28;20038;-57
2023/08/05 07:34:04;;;;;;;20.20;11.57;;;;;;;;;;5010616;28;20026;-54
2023/08/05 07:36:31;;;;;;;22.55;11.88;;;;;;;;;;5010711;28;20117;-57
2023/08/05 07:38:58;;;;;;;20.65;11.80;;;;;;;;;;5009814;28;20022;-57
2023/08/05 07:41:26;;;;;;;22.45;13.50;;;;;;;;;;5010946;28;20030;-50
2023/08/05 07:43:54;;;;;;;20.33;12.48;;;;;;;;;;5010854;28;20037;-51
2023/08/05 07:46:21;;;;;;;18.75;11.80;;;;;;;;;;5010603;28;20053;-54
2023/08/05 07:48:50;;;;;;;20.83;11.50;;;;;;;;;;5010765;28;20018;-53
2023/08/05 07:51:18;;;;;;;19.10;11.57;;;;;;;;;;5010701;28;20033;-57
2023/08/05 07:53:44;;;;;;;19.20;12.05;;;;;;;;;;5010678;28;20050;-52
2023/08/05 07:56:10;;;;;;;21.33;12.85;;;;;;;;;;5009715;28;20022;-56
2023/08/05 07:58:39;;;;;;;19.80;12.55;;;;;;;;;;5010741;28;20603;-54
2023/08/05 08:01:05;;;;;;;18.55;12.45;;;;;;;;;;5011269;28;20367;-53
2023/08/05 08:03:31;;;;;;;18.45;12.45;;;;;;;;;;5010695;28;20423;-56
2023/08/05 08:05:58;;;;;;;20.67;12.77;;;;;;;;;;5009788;28;20113;-52
2023/08/05 08:08:24;;;;;;;20.60;13.40;;;;;;;;;;5010590;28;20026;-55
2023/08/05 08:10:50;;;;;;;22.45;12.13;;;;;;;;;;5010498;28;20037;-53
2023/08/05 08:13:16;;;;;;;18.77;12.05;;;;;;;;;;5009355;28;20029;-51
2023/08/05 08:15:42;;;;;;;21.80;13.75;;;;;;;;;;5009629;28;20045;-59
2023/08/05 08:18:08;;;;;;;19.33;12.07;;;;;;;;;;5009188;28;20037;-52
2023/08/05 08:20:34;;;;;;;19.13;11.85;;;;;;;;;;5010265;28;20133;-49
2023/08/05 08:23:00;;;;;;;17.48;11.38;;;;;;;;;;5010142;28;20029;-51
2023/08/05 08:25:26;;;;;;;25.75;12.05;;;;;;;;;;5006391;28;20025;-49
2023/08/05 08:27:52;;;;;;;17.38;11.35;;;;;;;;;;4990448;28;20095;-48
2023/08/05 08:30:18;;;;;;;19.88;12.10;;;;;;;;;;4990257;28;20458;-48
2023/08/05 08:32:44;;;;;;;18.77;11.45;;;;;;;;;;4990130;28;20030;-52
2023/08/05 08:35:10;;;;;;;20.17;13.00;;;;;;;;;;4989818;28;20087;-51
2023/08/05 08:37:36;;;;;;;20.38;13.00;;;;;;;;;;4990157;28;20027;-53
2023/08/05 08:40:03;;;;;;;19.50;13.85;;;;;;;;;;4990266;28;20027;-51
2023/08/05 08:42:29;;;;;;;20.17;12.80;;;;;;;;;;4990189;28;20026;-50
2023/08/05 08:44:56;;;;;;;19.85;13.60;;;;;;;;;;4989695;28;20054;-48
2023/08/05 08:47:23;;;;;;;19.17;12.93;;;;;;;;;;4990447;28;20474;-51
2023/08/05 08:49:53;;;;;;;22.60;14.18;;;;;;;;;;4989132;28;20389;-50
2023/08/05 08:52:20;;;;;;;19.05;14.60;;;;;;;;;;4990310;28;20033;-53
2023/08/05 08:54:46;;;;;;;21.45;15.23;;;;;;;;;;5007583;28;20034;-52
2023/08/05 08:57:13;;;;;;;20.67;14.40;;;;;;;;;;4998345;28;20034;-49
2023/08/05 08:59:42;;;;;;;22.00;15.13;;;;;;;;;;4990126;28;20421;-53
2023/08/05 09:02:11;;;;;;;21.67;14.02;;;;;;;;;;5003452;28;20708;-53
2023/08/05 09:04:41;;;;;;;20.67;13.85;;;;;;;;;;5008106;28;20049;-50
2023/08/05 09:07:08;;;;;;;25.35;15.48;;;;;;;;;;5006684;28;20038;-53
2023/08/05 09:09:34;;;;;;;20.75;15.10;;;;;;;;;;4990230;28;20033;-54
2023/08/05 09:12:01;;;;;;;19.83;13.90;;;;;;;;;;4989964;28;20041;-49
2023/08/05 09:14:27;;;;;;;19.42;13.73;;;;;;;;;;4988633;28;20075;-54
2023/08/05 09:17:00;;;;;;;21.45;13.98;;;;;;;;;;4989923;28;20050;-53
2023/08/05 09:19:26;;;;;;;19.75;13.93;;;;;;;;;;4988304;28;20034;-54
2023/08/05 09:21:53;;;;;;;18.65;13.00;;;;;;;;;;4989966;28;20033;-48
2023/08/05 09:24:23;;;;;;;20.38;13.10;;;;;;;;;;4988508;28;20022;-51
2023/08/05 09:26:54;;;;;;;19.52;13.52;;;;;;;;;;4989824;28;20022;-52
2023/08/05 09:29:21;;;;;;;19.63;13.65;;;;;;;;;;4989887;28;20094;-51
2023/08/05 09:31:56;;;;;;;20.27;13.77;;;;;;;;;;4989806;28;20147;-50
2023/08/05 09:34:31;;;;;;;19.85;13.73;;;;;;;;;;4989499;28;20030;-49
2023/08/05 09:36:57;;;;;;;19.60;14.32;;;;;;;;;;4989730;28;20041;-51
2023/08/05 09:39:23;;;;;;;19.73;13.30;;;;;;;;;;4989401;28;20022;-50
2023/08/05 09:41:51;;;;;;;18.63;13.13;;;;;;;;;;4989438;28;20018;-50
2023/08/05 09:44:17;;;;;;;17.85;13.02;;;;;;;;;;4989381;28;20022;-51
2023/08/05 09:46:46;;;;;;;18.25;12.80;;;;;;;;;;4989622;28;20459;-53
2023/08/05 09:49:14;;;;;;;20.02;13.13;;;;;;;;;;4989707;28;20043;-52
2023/08/05 09:51:42;;;;;;;;;;;;;;;;;;4989947;28;20679;-50
2023/08/05 09:54:11;;;;;;;18.65;12.45;;;;;;;;;;5073428;28;19931;-51
2023/08/05 09:56:39;;;;;;;17.48;11.68;;;;;;;;;;5111694;28;20027;-54
2023/08/05 09:59:07;;;;;;;21.48;12.52;;;;;;;;;;5111604;28;20015;-56
2023/08/05 10:01:34;;;;;;;17.95;11.80;;;;;;;;;;5111452;28;20123;-52
2023/08/05 10:04:01;;;;;;;19.52;12.85;;;;;;;;;;5110877;28;20032;-52
2023/08/05 10:06:27;;;;;;;20.38;13.10;;;;;;;;;;5110440;28;20028;-51
2023/08/05 10:08:54;;;;;;;18.48;12.27;;;;;;;;;;5109715;28;20438;-54
2023/08/05 10:11:20;;;;;;;18.02;12.90;;;;;;;;;;5111540;28;20053;-51
2023/08/05 10:13:47;;;;;;;20.02;12.35;;;;;;;;;;5110447;28;20102;-51
2023/08/05 10:16:13;;;;;;;18.30;13.25;;;;;;;;;;5110670;28;20019;-51
2023/08/05 10:18:39;;;;;;;17.60;12.13;;;;;;;;;;5111513;28;20027;-50
2023/08/05 10:21:08;;;;;;;16.95;11.80;;;;;;;;;;5111450;28;20031;-47
2023/08/05 10:23:35;;;;;;;17.35;12.10;;;;;;;;;;5111301;28;20114;-52
2023/08/05 10:26:01;;;;;;;17.35;11.40;;;;;;;;;;5110963;28;20030;-51
2023/08/05 10:28:40;;;;;;;18.13;11.60;;;;;;;;;;5111032;28;20020;-50
2023/08/05 10:31:22;;;;;;;20.00;12.73;;;;;;;;;;5039551;28;20030;-53
2023/08/05 10:34:06;;;;;;;16.90;11.23;;;;;;;;;;5007420;28;20030;-50
2023/08/05 10:36:48;;;;;;;19.90;13.40;;;;;;;;;;5006096;28;20053;-53
2023/08/05 10:39:32;;;;;;;17.40;11.45;;;;;;;;;;5021739;28;20037;-52
2023/08/05 10:41:59;;;;;;;17.52;10.45;;;;;;;;;;5028170;28;20458;-55
2023/08/05 10:44:35;;;;;;;17.15;11.50;;;;;;;;;;5027646;28;20018;-51
2023/08/05 10:47:03;;;;;;;16.80;11.15;;;;;;;;;;5027737;28;20036;-47
2023/08/05 10:49:30;;;;;;;16.02;10.80;;;;;;;;;;5028032;28;20070;-50
2023/08/05 10:51:57;;;;;;;18.13;11.38;;;;;;;;;;5026761;28;20029;-53
2023/08/05 10:54:23;;;;;;;17.10;11.38;;;;;;;;;;5011782;28;20388;-48
2023/08/05 10:56:48;;;;;;;18.08;11.45;;;;;;;;;;5009365;28;20129;-53
2023/08/05 10:59:14;;;;;;;17.77;10.70;;;;;;;;;;5007246;28;20030;-49
2023/08/05 11:01:56;;;;;;;16.52;10.60;;;;;;;;;;4996934;28;20088;-53
2023/08/05 11:04:29;;;;;;;16.42;10.57;;;;;;;;;;4996737;28;20026;-66
2023/08/05 11:06:56;;;;;;;18.90;10.60;;;;;;;;;;4991624;28;20405;-60
2023/08/05 11:09:23;;;;;;;16.50;10.77;;;;;;;;;;4989808;28;20023;-61
2023/08/05 11:11:49;;;;;;;16.92;11.02;;;;;;;;;;4991372;28;20117;-60
2023/08/05 11:14:16;;;;;;;16.35;10.98;;;;;;;;;;4990924;28;20018;-60
2023/08/05 11:16:46;;;;;;;17.90;11.40;;;;;;;;;;4991064;28;20027;-61
2023/08/05 11:19:12;;;;;;;16.27;11.13;;;;;;;;;;4991155;28;20026;-61
2023/08/05 11:21:38;;;;;;;18.75;11.98;;;;;;;;;;4991281;28;20034;-61
2023/08/05 11:24:05;;;;;;;16.58;10.60;;;;;;;;;;4990793;28;20438;-61
2023/08/05 11:26:31;;;;;;;16.35;11.50;;;;;;;;;;4990543;28;20041;-62
2023/08/05 11:29:00;;;;;;;16.52;11.10;;;;;;;;;;4990694;28;20026;-61
2023/08/05 11:31:27;;;;;;;17.15;11.80;;;;;;;;;;4991009;28;20030;-61
2023/08/05 11:33:54;;;;;;;16.58;11.55;;;;;;;;;;4990846;28;20125;-61
2023/08/05 11:36:24;;;;;;;17.58;11.80;;;;;;;;;;4991990;28;20043;-62
2023/08/05 11:38:50;;;;;;;16.45;11.70;;;;;;;;;;4991300;28;20101;-62
2023/08/05 11:41:16;;;;;;;16.88;10.98;;;;;;;;;;4996845;28;20080;-62
2023/08/05 11:43:42;;;;;;;18.00;11.40;;;;;;;;;;5112619;28;20059;-61
2023/08/05 11:46:23;;;;;;;17.00;11.15;;;;;;;;;;5114163;28;20399;-61
2023/08/05 11:48:49;;;;;;;16.77;11.10;;;;;;;;;;5114442;28;20403;-62
2023/08/05 11:51:15;;;;;;;16.85;11.45;;;;;;;;;;5114538;28;20032;-65
2023/08/05 11:53:47;;;;;;;19.63;12.45;;;;;;;;;;5060850;28;20026;-59
2023/08/05 11:56:22;;;;;;;17.27;11.90;;;;;;;;;;5010364;28;20087;-56
2023/08/05 11:58:48;;;;;;;18.98;11.73;;;;;;;;;;5011061;28;20087;-61
2023/08/05 12:01:14;;;;;;;18.35;11.25;;;;;;;;;;5010769;28;20034;-66
2023/08/05 12:03:41;;;;;;;18.02;11.68;;;;;;;;;;5002707;28;20050;-66
2023/08/05 12:06:06;;;;;;;18.27;11.98;;;;;;;;;;4990846;28;20022;-66
2023/08/05 12:08:37;;;;;;;17.42;11.73;;;;;;;;;;4996493;28;20640;-65
2023/08/05 12:11:03;;;;;;;17.20;12.07;;;;;;;;;;5010806;28;20030;-66
2023/08/05 12:13:32;;;;;;;20.20;12.18;;;;;;;;;;5009332;28;20070;-66
2023/08/05 12:15:58;;;;;;;16.33;11.65;;;;;;;;;;5001404;28;20147;-60
2023/08/05 12:18:24;;;;;;;18.08;11.55;;;;;;;;;;4991004;28;20057;-60
2023/08/05 12:20:51;;;;;;;16.50;11.95;;;;;;;;;;5000172;28;20517;-61
2023/08/05 12:23:17;;;;;;;19.08;12.85;;;;;;;;;;5010706;28;20521;-62
2023/08/05 12:25:43;;;;;;;16.75;12.23;;;;;;;;;;5009276;28;20033;-63
2023/08/05 12:28:09;;;;;;;18.27;12.70;;;;;;;;;;5008491;28;20030;-62
2023/08/05 12:30:35;;;;;;;17.75;12.27;;;;;;;;;;5008554;28;20210;-63
2023/08/05 12:33:02;;;;;;;16.80;12.35;;;;;;;;;;5008586;28;20538;-63
2023/08/05 12:35:28;;;;;;;16.80;12.60;;;;;;;;;;5007697;28;20087;-63
2023/08/05 12:37:54;;;;;;;18.85;13.00;;;;;;;;;;5008224;28;20429;-62
2023/08/05 12:40:20;;;;;;;16.33;11.93;;;;;;;;;;5007988;28;20021;-58
2023/08/05 12:42:46;;;;;;;16.50;12.20;;;;;;;;;;5010270;28;20075;-62
2023/08/05 12:45:12;;;;;;;17.25;12.73;;;;;;;;;;5010193;28;20389;-61
2023/08/05 12:47:39;;;;;;;19.38;12.45;;;;;;;;;;5010129;28;20037;-62
2023/08/05 12:50:06;;;;;;;17.02;12.50;;;;;;;;;;5010316;28;20018;-63
2023/08/05 12:52:32;;;;;;;17.38;12.82;;;;;;;;;;5010362;28;20486;-64
2023/08/05 12:54:58;;;;;;;16.88;13.00;;;;;;;;;;5010002;28;20045;-61
2023/08/05 12:57:24;;;;;;;17.33;12.75;;;;;;;;;;5010245;28;20029;-63
2023/08/05 12:59:50;;;;;;;17.15;13.23;;;;;;;;;;5010076;28;20056;-63
2023/08/05 13:02:23;;;;;;;18.17;13.38;;;;;;;;;;5010192;28;20474;-60
2023/08/05 13:04:49;;;;;;;18.27;13.52;;;;;;;;;;5009735;28;20109;-60
2023/08/05 13:07:15;;;;;;;17.80;13.68;;;;;;;;;;5010097;28;20025;-63
2023/08/05 13:09:42;;;;;;;17.92;13.93;;;;;;;;;;5010178;28;20022;-63
2023/08/05 13:12:08;;;;;;;17.05;13.18;;;;;;;;;;5008681;28;20030;-60
2023/08/05 13:14:34;;;;;;;18.67;13.95;;;;;;;;;;5009765;28;20037;-58
2023/08/05 13:17:00;;;;;;;17.95;14.30;;;;;;;;;;5009855;28;20037;-61
2023/08/05 13:19:26;;;;;;;17.70;13.95;;;;;;;;;;5009461;28;20114;-63
2023/08/05 13:21:52;;;;;;;18.33;14.15;;;;;;;;;;5010069;28;20022;-63
2023/08/05 13:24:18;;;;;;;18.73;13.50;;;;;;;;;;5009649;28;20120;-61
2023/08/05 13:26:44;;;;;;;17.58;13.90;;;;;;;;;;5009170;28;20049;-63
2023/08/05 13:29:10;;;;;;;17.75;13.80;;;;;;;;;;5009917;28;20034;-63
2023/08/05 13:31:36;;;;;;;18.20;14.77;;;;;;;;;;5008428;28;20324;-63
2023/08/05 13:34:02;;;;;;;17.13;13.50;;;;;;;;;;5009310;28;20037;-62
2023/08/05 13:36:28;;;;;;;17.80;13.32;;;;;;;;;;5009073;28;20065;-62
2023/08/05 13:38:54;;;;;;;16.67;13.10;;;;;;;;;;5009701;28;20512;-60
2023/08/05 13:41:20;;;;;;;19.50;13.98;;;;;;;;;;5009611;28;20026;-61
2023/08/05 13:43:46;;;;;;;17.42;13.27;;;;;;;;;;5008164;28;20443;-63
2023/08/05 13:46:12;;;;;;;17.75;13.02;;;;;;;;;;5009112;28;20465;-62
2023/08/05 13:48:38;;;;;;;17.02;12.82;;;;;;;;;;5009349;28;20044;-64
2023/08/05 13:51:05;;;;;;;17.40;13.52;;;;;;;;;;5009484;28;20030;-63
2023/08/05 13:53:31;;;;;;;18.08;12.48;;;;;;;;;;5009205;28;20516;-60
2023/08/05 13:55:58;;;;;;;16.80;12.77;;;;;;;;;;5009293;28;20478;-61
2023/08/05 13:58:24;;;;;;;16.67;12.00;;;;;;;;;;5009235;28;20036;-63
2023/08/05 14:00:50;;;;;;;19.45;12.93;;;;;;;;;;5008735;28;20032;-60
2023/08/05 14:03:16;;;;;;;16.27;12.90;;;;;;;;;;5007779;28;20034;-63
2023/08/05 14:05:42;;;;;;;18.27;14.15;;;;;;;;;;5008392;28;20033;-61
2023/08/05 14:08:08;;;;;;;16.65;13.23;;;;;;;;;;5007218;28;20060;-62
2023/08/05 14:10:34;;;;;;;18.05;13.45;;;;;;;;;;5006321;28;20490;-63
2023/08/05 14:13:00;;;;;;;17.80;14.02;;;;;;;;;;5008315;28;20026;-58
2023/08/05 14:15:26;;;;;;;17.33;13.55;;;;;;;;;;5007200;28;20046;-62